Time;durP1;ratioP1;P1;durP2;ratioP2;P2;SDS_P1;SDS_P2;PMS_P1;PMS_P2;Temp;Humidity;BMP_temperature;BMP_pressure;BME280_temperature;BME280_humidity;BME280_pressure;Samples;Min_cycle;Max_cycle;Signal;HPM_P1;HPM_P2
2021/06/24 00:02:16;;;;;;;5.38;4.88;;;;;;;19.83;81.88;101943.00;6312855;28;20216;-75
2021/06/24 00:05:21;;;;;;;4.85;4.40;;;;;;;19.73;82.11;101942.81;6313283;28;20184;-75
2021/06/24 00:08:26;;;;;;;4.07;3.85;;;;;;;19.72;81.63;101937.56;6312325;28;20203;-75
2021/06/24 00:11:30;;;;;;;6.95;4.38;;;;;;;19.77;81.26;101949.53;6313511;28;20187;-75
2021/06/24 00:14:36;;;;;;;4.35;4.00;;;;;;;19.64;82.20;101941.59;6313325;28;20229;-75
2021/06/24 00:17:40;;;;;;;6.00;3.88;;;;;;;19.56;82.18;101947.53;6312904;28;20215;-75
2021/06/24 00:20:45;;;;;;;4.00;3.78;;;;;;;19.53;82.08;101945.25;6313364;28;20184;-75
2021/06/24 00:23:49;;;;;;;4.10;3.80;;;;;;;19.60;81.85;101945.91;6313439;28;20246;-75
2021/06/24 00:26:54;;;;;;;4.45;4.20;;;;;;;19.62;81.52;101940.97;6311891;28;20374;-75
2021/06/24 00:30:00;;;;;;;8.30;3.92;;;;;;;19.64;81.67;101933.28;6312907;28;20191;-75
2021/06/24 00:33:06;;;;;;;5.43;4.30;;;;;;;19.52;82.64;101940.78;6312196;28;20202;-75
2021/06/24 00:36:11;;;;;;;5.30;4.63;;;;;;;19.44;83.52;101932.88;6313139;28;20215;-75
2021/06/24 00:39:15;;;;;;;5.03;4.60;;;;;;;19.42;83.74;101929.53;6311372;28;20183;-75
2021/06/24 00:42:20;;;;;;;4.20;4.00;;;;;;;19.42;83.42;101924.00;6312680;28;20286;-75
2021/06/24 00:45:25;;;;;;;6.47;4.70;;;;;;;19.36;83.57;101916.69;6294072;28;20506;-75
2021/06/24 00:48:31;;;;;;;4.30;4.00;;;;;;;19.28;83.98;101911.56;6294857;28;20199;-75
2021/06/24 00:51:35;;;;;;;4.50;4.25;;;;;;;19.38;83.47;101917.31;6312821;28;20192;-74
2021/06/24 00:54:40;;;;;;;4.60;4.18;;;;;;;19.49;82.61;101918.31;6310317;28;20250;-74
2021/06/24 00:57:46;;;;;;;4.63;4.22;;;;;;;19.51;82.45;101916.97;6312631;28;20226;-75
2021/06/24 01:00:56;;;;;;;4.50;4.28;;;;;;;19.49;82.35;101919.13;6294179;28;20262;-75
2021/06/24 01:04:00;;;;;;;5.13;4.68;;;;;;;19.55;82.05;101922.84;6311582;28;20238;-75
2021/06/24 01:07:06;;;;;;;5.20;4.80;;;;;;;19.49;82.29;101919.13;6312270;28;20191;-75
2021/06/24 01:10:17;;;;;;;5.47;4.70;;;;;;;19.51;82.49;101930.81;6294161;28;20561;-75
2021/06/24 01:13:21;;;;;;;4.80;4.20;;;;;;;19.53;81.96;101922.25;6311004;28;20203;-75
2021/06/24 01:16:27;;;;;;;4.05;3.95;;;;;;;19.48;82.22;101934.09;6312219;28;20199;-75
2021/06/24 01:19:32;;;;;;;3.97;3.78;;;;;;;19.35;82.75;101937.97;6293124;28;20235;-75
2021/06/24 01:22:36;;;;;;;4.53;4.20;;;;;;;19.25;83.26;101950.78;6311092;28;20229;-75
2021/06/24 01:25:44;;;;;;;5.18;4.45;;;;;;;19.23;83.12;101952.97;6309922;28;20550;-75
2021/06/24 01:28:50;;;;;;;5.00;4.40;;;;;;;19.29;82.58;101947.25;6294571;28;20203;-74
2021/06/24 01:31:54;;;;;;;5.07;4.63;;;;;;;19.22;83.38;101957.66;6312399;28;20192;-75
2021/06/24 01:34:58;;;;;;;7.47;4.32;;;;;;;19.13;83.55;101947.22;6311995;28;20253;-75
2021/06/24 01:38:07;;;;;;;5.40;4.18;;;;;;;19.20;83.04;101959.81;6311101;28;20215;-75
2021/06/24 01:41:17;;;;;;;4.50;4.10;;;;;;;19.20;82.98;101953.44;6293576;28;20203;-75
2021/06/24 01:44:34;;;;;;;4.75;4.45;;;;;;;19.23;83.09;101952.97;6309755;28;20223;-75
2021/06/24 01:47:38;;;;;;;4.22;4.03;;;;;;;19.25;82.37;101950.78;6312323;28;20215;-75
2021/06/24 01:50:43;;;;;;;4.63;4.32;;;;;;;19.24;82.32;101943.56;6315316;28;20267;-75
2021/06/24 01:53:48;;;;;;;8.95;4.55;;;;;;;19.20;82.79;101945.16;6315663;28;20475;-75
2021/06/24 01:56:54;;;;;;;7.38;6.03;;;;;;;19.09;83.13;101941.34;6298446;28;20199;-75
2021/06/24 01:59:59;;;;;;;8.90;4.90;;;;;;;19.08;83.19;101936.88;6314379;28;20199;-75
2021/06/24 02:03:04;;;;;;;5.43;4.82;;;;;;;19.04;83.20;101938.47;6297809;28;20545;-75
2021/06/24 02:06:10;;;;;;;5.03;4.75;;;;;;;19.03;83.84;101927.66;6297734;28;20501;-75
2021/06/24 02:09:16;;;;;;;7.50;4.72;;;;;;;19.04;83.71;101927.41;6315255;28;20246;-75
2021/06/24 02:12:31;;;;;;;4.82;4.43;;;;;;;19.11;83.10;101927.25;6315189;28;20352;-75
2021/06/24 02:15:36;;;;;;;5.75;4.50;;;;;;;19.16;83.11;101924.56;6316456;28;20203;-75
2021/06/24 02:18:41;;;;;;;5.95;5.35;;;;;;;19.23;82.69;101936.34;6297560;28;20294;-75
2021/06/24 02:21:50;;;;;;;5.05;4.57;;;;;;;19.24;82.73;101940.78;6315672;28;20297;-75
2021/06/24 02:24:57;;;;;;;4.88;4.47;;;;;;;19.28;82.64;101937.25;6297913;28;20244;-75
2021/06/24 02:28:11;;;;;;;5.22;4.63;;;;;;;19.28;82.62;101933.69;6314666;28;20206;-75
2021/06/24 02:31:27;;;;;;;4.25;4.05;;;;;;;19.23;82.87;101941.88;6315131;28;20199;-75
2021/06/24 02:34:36;;;;;;;4.90;4.43;;;;;;;19.20;83.01;101942.38;6297164;28;20210;-75
2021/06/24 02:37:46;;;;;;;5.07;4.63;;;;;;;19.24;83.27;101940.78;6297906;28;20227;-75
2021/06/24 02:41:13;;;;;;;5.10;4.70;;;;;;;19.27;82.94;101937.53;6297790;28;20203;-75
2021/06/24 02:44:21;;;;;;;6.95;4.22;;;;;;;19.27;82.98;101937.53;6297871;28;20282;-75
2021/06/24 02:47:25;;;;;;;5.13;4.38;;;;;;;19.27;83.04;101934.75;6296554;28;20422;-75
2021/06/24 02:50:44;;;;;;;4.28;4.07;;;;;;;19.23;83.11;101934.41;6314237;28;20441;-75
2021/06/24 02:53:48;;;;;;;6.50;4.40;;;;;;;19.28;82.61;101939.22;6315618;28;20188;-75
2021/06/24 02:56:58;;;;;;;5.15;4.75;;;;;;;19.18;82.85;101939.84;6296881;28;20207;-75
2021/06/24 03:00:23;;;;;;;5.03;4.70;;;;;;;19.17;82.66;101937.34;6315022;28;20222;-75
2021/06/24 03:03:50;;;;;;;5.95;4.43;;;;;;;19.16;82.56;101941.19;6314306;28;20407;-75
2021/06/24 03:07:00;;;;;;;4.65;4.25;;;;;;;19.19;82.94;101946.22;6313865;28;20502;-75
2021/06/24 03:10:12;;;;;;;5.40;4.43;;;;;;;19.21;82.90;101941.28;6314130;28;20230;-76
2021/06/24 03:13:24;;;;;;;4.93;4.63;;;;;;;19.21;83.41;101949.56;6315271;28;20187;-75
2021/06/24 03:16:31;;;;;;;7.40;4.85;;;;;;;19.14;83.97;101938.66;6314943;28;20205;-76
2021/06/24 03:19:37;;;;;;;4.13;3.95;;;;;;;19.24;84.01;101932.47;6296190;28;20407;-75
2021/06/24 03:22:45;;;;;;;10.13;4.78;;;;;;;19.29;83.58;101927.88;6313414;28;20212;-76
2021/06/24 03:25:54;;;;;;;4.90;4.38;;;;;;;19.29;83.73;101925.13;6312485;28;20403;-75
2021/06/24 03:28:59;;;;;;;4.47;4.28;;;;;;;19.24;83.67;101922.25;6314853;28;20229;-76
2021/06/24 03:32:13;;;;;;;5.32;4.82;;;;;;;19.34;83.18;101932.66;6314736;28;20191;-75
2021/06/24 03:35:19;;;;;;;4.95;4.53;;;;;;;19.31;83.00;101938.72;6312611;28;20377;-76
2021/06/24 03:38:23;;;;;;;5.28;4.88;;;;;;;19.42;82.34;101932.31;6295876;28;20206;-76
2021/06/24 03:41:30;;;;;;;10.55;4.93;;;;;;;19.40;82.29;101934.50;6295780;28;20270;-75
2021/06/24 03:44:35;;;;;;;4.75;4.40;;;;;;;19.36;82.44;101925.81;6314373;28;20218;-75
2021/06/24 03:47:42;;;;;;;4.85;4.40;;;;;;;19.16;84.43;101930.09;6314437;28;20263;-76
2021/06/24 03:50:47;;;;;;;5.53;4.43;;;;;;;19.33;83.50;101936.53;6314271;28;20190;-75
2021/06/24 03:53:52;;;;;;;4.68;4.28;;;;;;;19.43;83.19;101936.75;6296104;28;20267;-75
2021/06/24 03:56:56;;;;;;;5.28;4.30;;;;;;;19.41;83.82;101938.94;6295728;28;20245;-75
2021/06/24 04:00:06;;;;;;;6.13;4.68;;;;;;;19.33;83.59;101931.00;6295655;28;20199;-75
2021/06/24 04:03:23;;;;;;;9.48;4.97;;;;;;;19.37;83.86;101943.28;6313988;28;20212;-76
2021/06/24 04:06:40;;;;;;;7.07;4.88;;;;;;;19.50;83.05;101942.97;6313758;28;20184;-75
2021/06/24 04:09:44;;;;;;;4.75;4.38;;;;;;;19.23;83.74;101936.34;6312429;28;20415;-75
2021/06/24 04:12:48;;;;;;;4.68;4.35;;;;;;;19.44;83.27;101943.16;6312572;28;20184;-75
2021/06/24 04:16:07;;;;;;;4.32;4.13;;;;;;;19.44;83.43;101938.41;6311235;28;20454;-75
2021/06/24 04:19:14;;;;;;;4.82;4.43;;;;;;;19.36;83.93;101947.94;6294685;28;20235;-75
2021/06/24 04:22:19;;;;;;;5.00;4.50;;;;;;;19.40;83.17;101937.25;6295064;28;20238;-75
2021/06/24 04:25:42;;;;;;;5.75;5.32;;;;;;;19.53;82.53;101936.09;6313272;28;20257;-75
2021/06/24 04:28:47;;;;;;;6.97;5.03;;;;;;;19.47;83.56;101943.47;6312018;28;20187;-75
2021/06/24 04:31:51;;;;;;;6.57;5.03;;;;;;;19.47;83.78;101943.47;6294230;28;20231;-76
2021/06/24 04:34:57;;;;;;;5.40;5.00;;;;;;;19.55;82.81;101929.22;6313112;28;20194;-76
2021/06/24 04:38:03;;;;;;;5.80;4.95;;;;;;;19.60;82.92;101932.06;6313144;28;20183;-76
2021/06/24 04:41:09;;;;;;;7.47;5.80;;;;;;;19.30;85.31;101939.81;6294767;28;20493;-75
2021/06/24 04:44:35;;;;;;;5.60;5.20;;;;;;;19.47;84.47;101937.94;6311771;28;20398;-75
2021/06/24 04:47:40;;;;;;;5.93;5.45;;;;;;;19.48;84.32;101933.25;6294817;28;20266;-75
2021/06/24 04:50:46;;;;;;;6.10;5.50;;;;;;;19.49;83.99;101930.22;6312877;28;20194;-75
2021/06/24 04:53:51;;;;;;;5.50;5.18;;;;;;;19.58;83.65;101917.66;6294240;28;20203;-75
2021/06/24 04:56:59;;;;;;;7.63;5.03;;;;;;;19.68;83.13;101931.66;6311419;28;20237;-75
2021/06/24 05:00:23;;;;;;;8.57;5.75;;;;;;;19.63;83.43;101923.28;6312204;28;20250;-75
2021/06/24 05:03:56;;;;;;;6.50;5.97;;;;;;;19.66;82.81;101920.00;6311868;28;20219;-75
2021/06/24 05:07:06;;;;;;;9.10;5.63;;;;;;;19.66;83.22;101922.78;6312822;28;20251;-75
2021/06/24 05:10:13;;;;;;;6.07;5.40;;;;;;;19.54;83.03;101935.03;6312413;28;20183;-76
2021/06/24 05:13:18;;;;;;;8.43;6.20;;;;;;;19.68;83.07;101923.38;6312417;28;20190;-76
2021/06/24 05:16:22;;;;;;;11.02;6.97;;;;;;;19.53;83.21;101925.88;6312744;28;20199;-75
2021/06/24 05:19:27;;;;;;;12.63;5.57;;;;;;;19.66;82.15;101911.69;6311467;28;20450;-75
2021/06/24 05:22:33;;;;;;;9.27;4.97;;;;;;;19.70;81.99;101915.63;6312802;28;20258;-76
2021/06/24 05:25:39;;;;;;;6.78;5.75;;;;;;;19.97;81.26;101915.81;6320772;28;20211;-76
2021/06/24 05:28:43;;;;;;;5.18;4.78;;;;;;;20.00;81.67;101921.66;6319494;28;20317;-76
2021/06/24 05:31:47;;;;;;;5.85;5.15;;;;;;;19.99;81.23;101931.09;6319896;28;20183;-76
2021/06/24 05:34:52;;;;;;;5.28;4.95;;;;;;;20.05;80.59;101917.31;6320332;28;20194;-76
2021/06/24 05:37:59;;;;;;;10.00;5.57;;;;;;;20.09;80.70;101929.53;6320759;28;20307;-75
2021/06/24 05:41:03;;;;;;;9.38;5.43;;;;;;;19.77;81.14;101938.44;6319085;28;20525;-76
2021/06/24 05:44:09;;;;;;;6.95;6.45;;;;;;;19.75;81.42;101940.63;6319871;28;20217;-76
2021/06/24 05:47:13;;;;;;;7.22;6.45;;;;;;;19.73;81.29;101937.28;6320060;28;20215;-76
2021/06/24 05:50:18;;;;;;;6.53;6.07;;;;;;;19.89;80.52;101935.63;6318979;28;20187;-76
2021/06/24 05:53:24;;;;;;;6.22;5.68;;;;;;;19.85;80.91;101929.72;6319064;28;20379;-76
2021/06/24 05:56:30;;;;;;;7.07;5.70;;;;;;;19.89;79.96;101919.84;6319154;28;20241;-76
2021/06/24 05:59:34;;;;;;;5.75;5.18;;;;;;;20.00;79.77;101909.75;6318506;28;20242;-76
2021/06/24 06:02:38;;;;;;;6.45;5.88;;;;;;;20.09;79.78;101921.22;6320296;28;20225;-76
2021/06/24 06:05:43;;;;;;;8.00;5.85;;;;;;;20.17;79.17;101920.81;6319845;28;20279;-76
2021/06/24 06:08:49;;;;;;;7.95;6.50;;;;;;;19.91;80.37;101912.13;6301542;28;20365;-76
2021/06/24 06:11:54;;;;;;;6.55;6.00;;;;;;;19.85;80.58;101918.66;6320403;28;20183;-76
2021/06/24 06:14:58;;;;;;;6.43;6.03;;;;;;;19.96;81.33;101908.56;6319649;28;20211;-76
2021/06/24 06:18:09;;;;;;;7.35;6.22;;;;;;;19.77;81.72;101905.22;6316475;28;20262;-76
2021/06/24 06:21:13;;;;;;;6.45;5.95;;;;;;;19.80;82.59;101904.72;6295294;28;20262;-76
2021/06/24 06:24:19;;;;;;;7.03;6.28;;;;;;;19.90;82.68;101893.81;6293834;28;20207;-76
2021/06/24 06:27:24;;;;;;;9.70;5.75;;;;;;;20.09;81.86;101893.53;6294755;28;20192;-76
2021/06/24 06:30:28;;;;;;;8.82;6.00;;;;;;;19.98;81.73;101890.59;6294974;28;20184;-76
2021/06/24 06:33:32;;;;;;;6.47;6.03;;;;;;;20.12;81.27;101907.72;6295664;28;20188;-76
2021/06/24 06:36:37;;;;;;;9.15;6.95;;;;;;;20.14;82.08;101908.31;6273027;28;20246;-76
2021/06/24 06:39:42;;;;;;;7.28;5.95;;;;;;;20.18;80.94;101922.50;6290807;28;20215;-76
2021/06/24 06:42:47;;;;;;;7.25;5.63;;;;;;;20.26;79.75;101919.31;6289528;28;20184;-76
2021/06/24 06:45:51;;;;;;;5.80;5.28;;;;;;;20.39;78.94;101935.59;6290660;28;20216;-76
2021/06/24 06:48:56;;;;;;;5.85;5.28;;;;;;;20.48;78.75;101934.03;6289630;28;20452;-76
2021/06/24 06:52:00;;;;;;;6.53;5.10;;;;;;;20.31;79.19;101927.72;6290371;28;20481;-76
2021/06/24 06:55:06;;;;;;;7.72;5.15;;;;;;;20.23;79.86;101928.13;6290098;28;20188;-76
2021/06/24 06:58:13;;;;;;;5.53;5.00;;;;;;;20.27;79.73;101937.63;6273509;28;20184;-77
2021/06/24 07:01:18;;;;;;;8.80;5.68;;;;;;;20.03;79.80;101925.03;6290678;28;20207;-76
2021/06/24 07:04:22;;;;;;;5.60;5.20;;;;;;;20.04;79.75;101938.63;6289062;28;20207;-76
2021/06/24 07:07:30;;;;;;;5.88;5.20;;;;;;;20.10;79.95;101936.78;6290419;28;20212;-76
2021/06/24 07:10:36;;;;;;;6.03;5.18;;;;;;;19.99;80.66;101931.09;6289942;28;20215;-76
2021/06/24 07:13:40;;;;;;;4.93;4.70;;;;;;;19.97;80.43;101938.81;6290362;28;20247;-76
2021/06/24 07:16:44;;;;;;;8.85;5.18;;;;;;;19.96;79.61;101937.13;6289404;28;20257;-76
2021/06/24 07:19:49;;;;;;;5.32;4.72;;;;;;;20.21;79.45;101922.81;6306830;28;20281;-76
2021/06/24 07:22:53;;;;;;;4.97;4.60;;;;;;;20.34;78.04;101924.41;6314085;28;20256;-76
2021/06/24 07:25:58;;;;;;;5.38;4.97;;;;;;;20.41;78.87;101916.75;6314691;28;20367;-76
2021/06/24 07:29:02;;;;;;;5.43;4.88;;;;;;;20.38;77.65;101922.81;6313481;28;20215;-76
2021/06/24 07:32:08;;;;;;;5.30;4.75;;;;;;;20.42;77.91;101919.28;6313389;28;20382;-76
2021/06/24 07:35:12;;;;;;;7.72;4.80;;;;;;;20.66;77.68;101919.88;6313680;28;20183;-76
2021/06/24 07:38:17;;;;;;;4.90;4.50;;;;;;;20.77;76.56;101910.59;6314263;28;20251;-76
2021/06/24 07:41:24;;;;;;;5.53;3.92;;;;;;;20.68;73.24;101912.13;6314640;28;20191;-76
2021/06/24 07:44:28;;;;;;;6.15;4.00;;;;;;;20.70;75.02;101915.47;6312947;28;20501;-76
2021/06/24 07:47:32;;;;;;;3.78;3.67;;;;;;;20.82;73.74;101907.03;6313087;28;20211;-76
2021/06/24 07:50:38;;;;;;;5.47;4.07;;;;;;;20.67;72.79;101899.38;6313890;28;20222;-75
2021/06/24 07:53:45;;;;;;;3.22;3.13;;;;;;;20.76;71.07;101903.34;6313564;28;20215;-75
2021/06/24 07:56:50;;;;;;;3.53;3.40;;;;;;;20.92;71.18;101902.44;6313832;28;20195;-75
2021/06/24 07:59:54;;;;;;;3.85;3.75;;;;;;;21.21;71.68;101905.84;6313534;28;20215;-75
2021/06/24 08:02:59;;;;;;;3.60;3.35;;;;;;;21.27;70.30;101901.16;6313705;28;20188;-75
2021/06/24 08:06:04;;;;;;;3.17;3.00;;;;;;;21.22;70.00;101907.50;6295345;28;20219;-75
2021/06/24 08:09:10;;;;;;;3.95;3.40;;;;;;;21.04;67.74;101900.34;6312325;28;20373;-75
2021/06/24 08:12:16;;;;;;;6.35;3.97;;;;;;;21.08;69.53;101912.63;6313239;28;20184;-75
2021/06/24 08:15:21;;;;;;;4.35;4.05;;;;;;;21.09;71.02;101914.31;6313362;28;20199;-76
2021/06/24 08:18:26;;;;;;;4.00;3.80;;;;;;;21.27;70.90;101920.59;6312060;28;20542;-76
2021/06/24 08:21:30;;;;;;;4.07;3.72;;;;;;;21.23;71.05;101913.91;6313204;28;20238;-77
2021/06/24 08:24:35;;;;;;;4.00;3.90;;;;;;;21.03;72.67;101915.31;6312924;28;20188;-75
2021/06/24 08:27:41;;;;;;;4.88;4.45;;;;;;;20.92;72.27;101923.78;6295140;28;20227;-76
2021/06/24 08:30:45;;;;;;;4.50;4.20;;;;;;;20.84;72.68;101916.78;6311748;28;20486;-75
2021/06/24 08:33:49;;;;;;;3.95;3.85;;;;;;;20.99;72.81;101911.41;6313173;28;20194;-75
2021/06/24 08:36:53;;;;;;;5.20;3.92;;;;;;;20.96;71.72;101920.22;6312902;28;20254;-75
2021/06/24 08:39:58;;;;;;;4.63;4.22;;;;;;;20.92;69.03;101910.78;6311439;28;20187;-75
2021/06/24 08:43:03;;;;;;;4.00;3.75;;;;;;;20.99;68.50;101914.16;6312865;28;20221;-75
2021/06/24 08:46:07;;;;;;;3.88;3.67;;;;;;;21.15;70.23;101918.84;6312458;28;20211;-75
2021/06/24 08:49:13;;;;;;;3.88;3.50;;;;;;;21.19;69.09;101914.41;6311097;28;20374;-75
2021/06/24 08:52:18;;;;;;;3.70;3.50;;;;;;;21.29;70.27;101923.97;6311407;28;20187;-75
2021/06/24 08:55:22;;;;;;;3.92;3.70;;;;;;;21.42;69.02;101917.97;6312533;28;20254;-75
2021/06/24 08:58:33;;;;;;;3.95;3.72;;;;;;;21.45;69.94;101914.66;6312001;28;20219;-75
2021/06/24 09:01:48;;;;;;;3.83;3.63;;;;;;;21.28;69.20;101913.94;6312072;28;20184;-76
2021/06/24 09:04:52;;;;;;;3.97;3.75;;;;;;;21.33;68.47;101917.63;6311893;28;20483;-76
2021/06/24 09:07:56;;;;;;;3.80;3.50;;;;;;;21.23;68.72;101925.00;6311997;28;20246;-76
2021/06/24 09:11:16;;;;;;;3.63;3.53;;;;;;;21.23;69.19;101927.78;6312187;28;20190;-75
2021/06/24 09:14:21;;;;;;;5.70;4.22;;;;;;;21.26;70.10;101932.81;6310993;28;20357;-76
2021/06/24 09:17:37;;;;;;;4.95;4.07;;;;;;;21.20;70.39;101924.44;6312264;28;20242;-75
2021/06/24 09:20:41;;;;;;;8.85;3.97;;;;;;;21.22;69.26;101918.59;6312034;28;20188;-76
2021/06/24 09:23:47;;;;;;;5.00;4.07;;;;;;;21.12;69.27;101919.34;6311352;28;20406;-76
2021/06/24 09:26:52;;;;;;;4.10;3.70;;;;;;;21.22;69.09;101918.59;6311638;28;20589;-75
2021/06/24 09:30:08;;;;;;;3.78;3.67;;;;;;;21.39;69.43;101918.50;6311143;28;20184;-75
2021/06/24 09:33:16;;;;;;;4.25;3.95;;;;;;;21.53;69.62;101914.19;6312384;28;20195;-75
2021/06/24 09:36:34;;;;;;;7.55;3.83;;;;;;;21.41;67.43;101921.88;6312436;28;20188;-76
2021/06/24 09:39:44;;;;;;;3.80;3.50;;;;;;;21.64;67.79;101915.97;6311580;28;20195;-76
2021/06/24 09:42:48;;;;;;;3.75;3.55;;;;;;;21.78;68.50;101911.63;6311334;28;20248;-76
2021/06/24 09:46:14;;;;;;;7.20;3.55;;;;;;;21.85;68.09;101912.25;6310861;28;20526;-76
2021/06/24 09:49:32;;;;;;;3.78;3.58;;;;;;;21.67;66.82;101898.78;6293206;28;20199;-76
2021/06/24 09:52:38;;;;;;;3.40;3.30;;;;;;;21.80;66.93;101898.34;6310846;28;20188;-76
2021/06/24 09:55:42;;;;;;;4.43;3.30;;;;;;;22.00;66.99;101898.50;6310584;28;20237;-76
2021/06/24 09:58:47;;;;;;;4.15;3.80;;;;;;;22.08;66.47;101895.22;6310514;28;20450;-76
2021/06/24 10:01:53;;;;;;;3.80;3.50;;;;;;;22.07;65.56;101893.56;6311548;28;20219;-76
2021/06/24 10:04:58;;;;;;;3.83;3.63;;;;;;;22.19;65.61;101896.94;6311839;28;20184;-76
2021/06/24 10:08:03;;;;;;;4.43;4.03;;;;;;;22.01;65.20;101897.38;6311742;28;20219;-76
2021/06/24 10:11:07;;;;;;;4.00;3.80;;;;;;;22.22;65.41;101890.88;6313554;28;20184;-76
2021/06/24 10:14:15;;;;;;;3.50;3.38;;;;;;;22.32;64.86;101895.63;6315030;28;20501;-76
2021/06/24 10:17:21;;;;;;;5.35;3.70;;;;;;;22.38;65.21;101894.56;6315912;28;20486;-76
2021/06/24 10:20:28;;;;;;;4.50;4.18;;;;;;;22.18;63.71;101884.19;6314788;28;20310;-76
2021/06/24 10:23:33;;;;;;;3.58;3.38;;;;;;;22.38;63.92;101881.50;6316265;28;20254;-76
2021/06/24 10:26:40;;;;;;;3.50;3.40;;;;;;;22.49;64.50;101878.78;6317032;28;20246;-77
2021/06/24 10:29:47;;;;;;;4.25;3.45;;;;;;;22.49;63.96;101889.91;6317792;28;20184;-75
2021/06/24 10:33:01;;;;;;;4.43;3.05;;;;;;;22.49;62.91;101885.19;6316267;28;20184;-75
2021/06/24 10:36:14;;;;;;;7.25;3.90;;;;;;;22.67;62.43;101869.97;6315764;28;20184;-75
2021/06/24 10:39:34;;;;;;;4.03;3.60;;;;;;;22.85;63.08;101873.09;6314627;28;20210;-76
2021/06/24 10:42:51;;;;;;;7.68;3.85;;;;;;;22.89;65.16;101874.22;6315376;28;20184;-75
2021/06/24 10:46:13;;;;;;;3.78;3.58;;;;;;;22.66;62.04;101868.28;6315075;28;20215;-76
2021/06/24 10:49:25;;;;;;;4.35;3.35;;;;;;;22.83;62.89;101877.28;6315771;28;20246;-76
2021/06/24 10:52:36;;;;;;;3.78;3.45;;;;;;;22.71;62.26;101876.66;6314340;28;20559;-76
2021/06/24 10:55:43;;;;;;;10.52;3.67;;;;;;;23.03;61.65;101871.75;6314008;28;20184;-75
2021/06/24 10:58:48;;;;;;;3.67;3.25;;;;;;;23.05;63.28;101872.31;6314500;28;20188;-76
2021/06/24 11:01:52;;;;;;;3.83;3.63;;;;;;;22.87;61.75;101864.47;6314898;28;20222;-75
2021/06/24 11:05:17;;;;;;;3.50;3.40;;;;;;;22.84;62.90;101867.81;6315003;28;20188;-75
2021/06/24 11:08:28;;;;;;;4.10;3.92;;;;;;;23.00;62.23;101869.53;6314998;28;20207;-75
2021/06/24 11:11:41;;;;;;;3.63;3.53;;;;;;;23.14;62.94;101865.09;6313842;28;20375;-75
2021/06/24 11:14:59;;;;;;;4.90;3.53;;;;;;;23.07;62.03;101858.94;6314920;28;20215;-76
2021/06/24 11:18:06;;;;;;;3.60;3.40;;;;;;;23.26;62.75;101856.47;6310479;28;20415;-76
2021/06/24 11:21:13;;;;;;;3.63;3.47;;;;;;;23.26;61.43;101850.91;6288143;28;20184;-76
2021/06/24 11:24:23;;;;;;;8.43;4.07;;;;;;;23.28;61.63;101849.53;6288499;28;20483;-76
2021/06/24 11:27:27;;;;;;;6.88;4.32;;;;;;;23.42;60.65;101839.53;6272260;28;20208;-76
2021/06/24 11:31:02;;;;;;;3.90;3.63;;;;;;;23.41;60.13;101837.88;6288327;28;20477;-76
2021/06/24 11:34:16;;;;;;;3.45;3.25;;;;;;;23.58;61.12;101835.63;6289288;28;20192;-76
2021/06/24 11:37:27;;;;;;;4.35;4.10;;;;;;;23.57;60.27;101831.16;6289166;28;20248;-76
2021/06/24 11:40:32;;;;;;;4.40;3.33;;;;;;;23.57;60.44;101831.16;6289311;28;20262;-77
2021/06/24 11:43:37;;;;;;;6.25;3.60;;;;;;;23.64;60.16;101842.03;6289345;28;20184;-76
2021/06/24 11:46:41;;;;;;;4.07;3.50;;;;;;;23.59;59.88;101831.75;6288994;28;20251;-76
2021/06/24 12:03:22;;;;;;;4.22;3.50;;;;;;;23.26;60.76;101829.47;6288647;28;20191;-76
2021/06/24 12:06:26;;;;;;;4.20;3.90;;;;;;;23.10;61.86;101829.72;6287626;28;20366;-76
2021/06/24 12:09:42;;;;;;;4.05;3.75;;;;;;;23.03;62.63;101832.78;6287455;28;20645;-77
2021/06/24 12:12:46;;;;;;;4.28;3.97;;;;;;;22.98;62.92;101830.81;6288681;28;20231;-76
2021/06/24 12:15:54;;;;;;;4.13;3.92;;;;;;;22.98;64.38;101830.81;6288637;28;20207;-77
2021/06/24 12:18:58;;;;;;;10.43;4.20;;;;;;;23.04;64.64;101831.66;6298619;28;20281;-76
2021/06/24 12:22:02;;;;;;;4.32;4.00;;;;;;;22.99;65.02;101823.31;6313381;28;20215;-77
2021/06/24 12:25:09;;;;;;;4.68;4.47;;;;;;;23.06;65.99;101827.50;6313102;28;20255;-75
2021/06/24 12:28:15;;;;;;;4.53;4.43;;;;;;;23.09;66.50;101817.75;6312826;28;20227;-75
2021/06/24 12:31:21;;;;;;;5.68;4.63;;;;;;;23.24;65.39;101820.53;6311894;28;20215;-76
2021/06/24 12:34:25;;;;;;;4.57;4.28;;;;;;;23.26;65.45;101812.78;6312570;28;20229;-75
2021/06/24 12:37:32;;;;;;;5.95;4.72;;;;;;;23.32;65.17;101814.44;6311633;28;20521;-76
2021/06/24 12:40:39;;;;;;;6.45;4.70;;;;;;;23.43;65.22;101813.34;6312608;28;20225;-76
2021/06/24 12:43:44;;;;;;;5.05;4.68;;;;;;;23.55;65.61;101811.09;6311821;28;20191;-76
2021/06/24 12:46:49;;;;;;;5.50;5.03;;;;;;;23.60;65.18;101802.75;6311362;28;20525;-76
2021/06/24 12:49:53;;;;;;;4.80;4.38;;;;;;;23.60;64.55;101813.88;6311337;28;20515;-76
2021/06/24 12:53:16;;;;;;;5.07;4.60;;;;;;;23.57;62.99;101811.66;6311522;28;20188;-76
2021/06/24 12:56:23;;;;;;;4.93;4.70;;;;;;;23.53;63.88;101813.34;6312723;28;20183;-77
2021/06/24 12:59:29;;;;;;;5.63;4.70;;;;;;;23.28;64.93;101813.31;6311391;28;20502;-75
2021/06/24 13:02:33;;;;;;;4.57;4.15;;;;;;;23.17;64.67;101820.00;6312274;28;20184;-75
2021/06/24 13:05:38;;;;;;;4.70;4.40;;;;;;;23.20;64.83;101807.47;6312521;28;20230;-75
2021/06/24 13:09:01;;;;;;;7.95;4.47;;;;;;;23.21;64.08;101804.44;6311390;28;20217;-77
2021/06/24 13:12:08;;;;;;;5.85;4.32;;;;;;;23.31;64.40;101810.00;6312074;28;20253;-76
2021/06/24 13:15:30;;;;;;;6.93;4.85;;;;;;;23.28;63.01;101804.13;6312124;28;20206;-76
2021/06/24 13:18:49;;;;;;;9.38;4.40;;;;;;;23.16;62.60;101812.78;6312043;28;20235;-76
2021/06/24 13:21:56;;;;;;;5.05;4.65;;;;;;;23.17;63.44;101808.84;6312149;28;20229;-77
2021/06/24 13:25:03;;;;;;;7.22;4.70;;;;;;;23.26;63.96;101812.78;6312213;28;20317;-77
2021/06/24 13:28:10;;;;;;;4.50;4.28;;;;;;;23.08;64.76;101821.66;6311917;28;20190;-76
2021/06/24 13:31:14;;;;;;;4.75;4.55;;;;;;;23.00;65.70;101825.00;6311005;28;20212;-76
2021/06/24 13:34:20;;;;;;;4.95;4.65;;;;;;;22.84;66.60;101831.63;6312477;28;20256;-76
2021/06/24 13:37:24;;;;;;;5.30;4.80;;;;;;;22.91;66.40;101818.28;6312087;28;20245;-76
2021/06/24 13:40:31;;;;;;;5.40;5.00;;;;;;;22.74;66.82;101817.69;6311935;28;20187;-75
2021/06/24 13:43:39;;;;;;;5.18;4.88;;;;;;;22.58;67.79;101810.38;6311490;28;20184;-75
2021/06/24 13:46:45;;;;;;;5.00;4.70;;;;;;;22.45;67.80;101828.41;6316763;28;20191;-75
2021/06/24 13:49:49;;;;;;;4.78;4.47;;;;;;;22.38;68.25;101823.13;6315855;28;20218;-75
2021/06/24 13:52:53;;;;;;;5.47;4.97;;;;;;;22.39;67.96;101826.75;6316201;28;20229;-77
2021/06/24 13:55:58;;;;;;;5.38;4.95;;;;;;;22.31;68.00;101835.59;6317505;28;20218;-76
2021/06/24 13:59:04;;;;;;;5.03;4.63;;;;;;;22.32;67.60;101829.75;6315865;28;20267;-75
2021/06/24 14:02:10;;;;;;;5.32;4.93;;;;;;;22.18;67.49;101827.75;6316324;28;20191;-75
2021/06/24 14:05:15;;;;;;;8.20;4.93;;;;;;;22.33;67.65;101820.31;6315301;28;20215;-75
2021/06/24 14:08:19;;;;;;;5.10;4.70;;;;;;;22.24;67.76;101821.94;6316160;28;20251;-75
2021/06/24 14:11:23;;;;;;;5.57;5.10;;;;;;;22.27;67.61;101831.66;6316223;28;20278;-74
2021/06/24 14:14:29;;;;;;;7.80;5.32;;;;;;;22.09;68.45;101824.63;6315885;28;20187;-74
2021/06/24 14:17:33;;;;;;;4.93;4.63;;;;;;;22.11;68.94;101821.59;6316465;28;20199;-75
2021/06/24 14:20:37;;;;;;;4.88;4.60;;;;;;;22.11;68.23;101821.59;6315125;28;20288;-75
2021/06/24 14:23:42;;;;;;;4.97;4.68;;;;;;;22.11;68.02;101827.97;6315200;28;20246;-75
2021/06/24 14:26:47;;;;;;;5.05;4.82;;;;;;;22.19;67.74;101813.56;6316081;28;20254;-76
2021/06/24 14:29:52;;;;;;;4.97;4.45;;;;;;;22.09;67.55;101816.28;6314929;28;20274;-76
2021/06/24 14:32:56;;;;;;;7.65;4.75;;;;;;;22.07;66.75;101810.19;6315936;28;20192;-75
2021/06/24 14:36:01;;;;;;;9.57;5.28;;;;;;;22.03;67.14;101797.94;6314634;28;20254;-76
2021/06/24 14:39:06;;;;;;;10.48;4.78;;;;;;;21.99;67.36;101810.69;6314462;28;20250;-75
2021/06/24 14:42:12;;;;;;;7.22;4.85;;;;;;;22.07;67.54;101804.63;6314650;28;20237;-75
2021/06/24 14:45:23;;;;;;;4.60;4.25;;;;;;;21.94;66.79;101816.22;6315465;28;20262;-76